Airfield :
LOGIN :

Register | Disclaimer

   EN    FR    IT 

 










Legend :    VFR   Marginal VFR   IFR   Intensive IFR   Very Intensive IFR
Visi :
Ceiling :
>= 8 km
>= 3000ft
5 to 8 km
1000 to 3000 ft
1500m to 5 km
500 to 1000 ft
800 to 1500m
200 to 500 ft
< 800m
< 200 ft
Symbols :   Thunderstorms  Fog  Heavy snow  Heavy precipitations  Wind > 20 kt
SIGMETs :     Misc.  Thunderstorms  Icing  Turbulence  Mountain Waves  Volcanic Ashes






- Airport Elevation : 614 ft
- IATA code : CRL


EBCI - Charleroi

CURRENT METAR :
  • 102350Z 19017G29KT 9999 BKN020 BKN030 05/02 Q1012 TEMPO 19020G32KT

EXPIRED METARs :
  • 102320Z 20020G32KT 9999 BKN020 BKN030 05/02 Q1013 TEMPO 19020G32KT
  • 102250Z 19021G32KT 9999 BKN028 BKN035 05/01 Q1013 TEMPO 19020G32KT
  • 102220Z 19020KT 9999 BKN030 BKN040 06/01 Q1013 TEMPO 19020G32KT
  • 102150Z 19021G32KT 9999 BKN030 BKN040 06/01 Q1013 TEMPO 19020G32KT
  • 102120Z 19016G30KT 9999 SCT030 BKN040 06/01 Q1014 TEMPO 19020G32KT

TAF TAF EBCI
Valid from the 11 at 00:00 until the 12 at 06:00 UTC


102300Z 1100/1206 19020G30KT 9999 BKN025
BECMG 1101/1103 21014KT SCT008 BKN012
TEMPO 1103/1108 3500 RA -RADZ BKN005
BECMG 1108/1110 SCT012 BKN030
BECMG 1120/1122 BKN012
TEMPO 1122/1202 4000 SHRA BKN008 SCT012TCU
BECMG 1203/1205 BKN006
PROB30
TEMPO 1204/1206 BKN004



MET'MAP, your aeronautical weather chart ! - Copyright ORBIFLY December 2007 - Disclaimer

ORBIFLY MET'MAP TEAM :

Programming & Development : Alexandra Zaïnal
Concept & original design : Baudouin d'Aumeries
Assistance for programming : Marc-Olivier Méhu
Technical & hardware support : Manuel Goepfert

Contact : metmap@orbifly.com




SOURCES & CREDITS :

   NOAA